createdAt,value
2022-08-25T00:03:58.460Z,15.37
2022-08-25T00:06:46.867Z,15.31
2022-08-25T00:09:35.752Z,15.25
2022-08-25T00:12:23.076Z,15.17
2022-08-25T00:15:11.232Z,15.11
2022-08-25T00:17:58.938Z,15.08
2022-08-25T00:20:48.774Z,15.01
2022-08-25T00:23:36.329Z,14.95
2022-08-25T00:26:23.830Z,14.94
2022-08-25T00:29:11.704Z,14.96
2022-08-25T00:31:59.531Z,14.99
2022-08-25T00:34:47.078Z,14.95
2022-08-25T00:37:34.128Z,14.95
2022-08-25T00:40:22.367Z,14.91
2022-08-25T00:43:09.844Z,14.83
2022-08-25T00:45:56.958Z,14.76
2022-08-25T00:48:47.608Z,14.68
2022-08-25T00:51:43.126Z,14.66
2022-08-25T00:54:40.937Z,14.61
2022-08-25T00:57:35.233Z,14.60
2022-08-25T01:00:24.847Z,14.55
2022-08-25T01:03:12.383Z,14.56
2022-08-25T01:06:02.036Z,14.56
2022-08-25T01:08:32.391Z,14.58
2022-08-25T01:11:03.561Z,14.61
2022-08-25T01:13:45.302Z,14.59
2022-08-25T01:16:15.138Z,14.59
2022-08-25T01:18:52.296Z,14.55
2022-08-25T01:21:22.189Z,14.56
2022-08-25T01:23:53.109Z,14.52
2022-08-25T01:26:30.353Z,14.50
2022-08-25T01:29:18.292Z,14.51
2022-08-25T01:31:45.322Z,14.52
2022-08-25T01:34:13.434Z,14.49
2022-08-25T01:36:42.549Z,14.46
2022-08-25T01:39:09.732Z,14.41
2022-08-25T01:41:46.335Z,14.34
2022-08-25T01:44:16.657Z,14.33
2022-08-25T01:46:43.996Z,14.34
2022-08-25T01:49:11.025Z,14.35
2022-08-25T01:51:48.883Z,14.31
2022-08-25T01:54:15.711Z,14.32
2022-08-25T01:56:42.571Z,14.32
2022-08-25T02:03:01.921Z,14.18
2022-08-25T02:05:30.197Z,14.13
2022-08-25T02:07:59.597Z,14.09
2022-08-25T02:10:27.573Z,14.04
2022-08-25T02:12:54.682Z,14.02
2022-08-25T02:15:21.579Z,13.99
2022-08-25T02:17:48.355Z,13.96
2022-08-25T02:24:16.563Z,13.84
2022-08-25T02:27:04.216Z,13.84
2022-08-25T02:29:51.314Z,13.92
2022-08-25T02:32:39.525Z,13.97
2022-08-25T02:35:26.706Z,13.97
2022-08-25T02:38:14.338Z,13.95
2022-08-25T02:41:07.974Z,13.94
2022-08-25T02:43:55.401Z,13.95
2022-08-25T02:46:42.539Z,13.97
2022-08-25T02:49:30.610Z,13.99
2022-08-25T02:52:17.776Z,13.95
2022-08-25T02:55:08.984Z,13.93
2022-08-25T02:57:56.019Z,13.93
2022-08-25T06:08:33.799Z,13.03
2022-08-25T06:11:07.447Z,13.03
2022-08-25T06:13:34.478Z,13.06
2022-08-25T06:16:01.321Z,13.06
2022-08-25T06:18:28.159Z,13.07
2022-08-25T06:20:54.928Z,13.11
2022-08-25T06:23:21.716Z,13.16
2022-08-25T06:25:50.714Z,13.19
2022-08-25T06:28:18.360Z,13.21
2022-08-25T06:30:45.799Z,13.23
2022-08-25T06:33:13.065Z,13.26
2022-08-25T06:35:44.458Z,13.28
2022-08-25T06:39:12.842Z,13.29
2022-08-25T06:41:39.682Z,13.34
2022-08-25T06:44:06.813Z,13.36
2022-08-25T06:46:36.196Z,13.37
2022-08-25T06:49:08.251Z,13.40
2022-08-25T06:51:52.261Z,13.45
2022-08-25T06:55:01.639Z,13.48
2022-08-25T06:58:25.819Z,13.48
2022-08-25T07:08:33.576Z,13.67
2022-08-25T07:11:15.918Z,13.70
2022-08-25T07:13:44.786Z,13.75
2022-08-25T07:17:10.563Z,13.81
2022-08-25T07:19:41.039Z,14.03
2022-08-25T07:26:33.567Z,14.51
2022-08-25T07:33:06.755Z,14.66
2022-08-25T07:35:37.954Z,14.69
2022-08-25T07:38:07.093Z,14.68
2022-08-25T07:40:38.034Z,14.71
2022-08-25T07:43:10.643Z,14.76
2022-08-25T07:45:49.084Z,14.81
2022-08-25T07:48:16.399Z,14.87
2022-08-25T07:50:45.850Z,14.94
2022-08-25T07:53:15.109Z,15.00
2022-08-25T07:55:42.017Z,15.02
2022-08-25T08:02:39.191Z,15.08
2022-08-25T08:08:59.021Z,15.17
2022-08-25T08:11:27.391Z,15.20
2022-08-25T08:13:56.612Z,15.29
2022-08-25T08:16:26.238Z,15.37
2022-08-25T08:23:04.243Z,15.88
2022-08-25T08:25:31.243Z,16.10
2022-08-25T08:27:58.069Z,16.33
2022-08-25T08:30:26.316Z,16.62
2022-08-25T08:33:11.933Z,16.89
2022-08-25T08:36:06.115Z,17.44
2022-08-25T08:38:43.263Z,18.09
2022-08-25T08:42:09.460Z,18.97
2022-08-25T08:44:37.152Z,20.08
2022-08-25T08:47:52.911Z,21.37
2022-08-25T08:50:51.998Z,22.39
2022-08-25T08:53:55.020Z,23.23
2022-08-25T08:56:32.087Z,23.83
2022-08-25T08:59:06.334Z,24.17
2022-08-25T09:01:47.123Z,24.49
2022-08-25T09:04:45.443Z,25.08
2022-08-25T09:07:17.860Z,25.63
2022-08-25T09:09:48.013Z,25.85
2022-08-25T09:12:21.892Z,25.87
2022-08-25T09:15:14.663Z,26.30
2022-08-25T09:25:39.652Z,26.97
2022-08-25T09:28:38.756Z,27.01
2022-08-25T09:34:56.363Z,27.17
2022-08-25T09:37:25.051Z,27.39
2022-08-25T09:39:51.911Z,27.45
2022-08-25T09:42:23.754Z,27.48
2022-08-25T09:44:50.803Z,27.55
2022-08-25T09:47:28.093Z,27.61
2022-08-25T09:53:35.208Z,28.09
2022-08-25T09:56:27.373Z,28.05
2022-08-25T09:59:36.105Z,28.17
2022-08-25T10:02:25.831Z,28.39
2022-08-25T10:04:53.501Z,28.30
2022-08-25T10:07:54.824Z,28.26
2022-08-25T10:10:53.302Z,28.23
2022-08-25T10:13:47.519Z,27.83
2022-08-25T10:16:34.830Z,27.50
2022-08-25T10:19:27.033Z,27.61
2022-08-25T10:26:37.403Z,28.24
2022-08-25T10:29:42.834Z,28.29
2022-08-25T10:32:54.312Z,28.21
2022-08-25T10:36:15.102Z,27.98
2022-08-25T10:39:31.731Z,27.96
2022-08-25T10:50:29.566Z,27.15
2022-08-25T10:53:14.288Z,26.62
2022-08-25T11:03:35.256Z,24.92
2022-08-25T11:06:18.029Z,24.76
2022-08-25T11:08:53.323Z,24.53
2022-08-25T11:11:47.212Z,24.00
2022-08-25T11:14:46.656Z,23.94
2022-08-25T11:17:55.981Z,23.92
2022-08-25T11:21:10.097Z,23.83
2022-08-25T11:24:09.300Z,23.37
2022-08-25T11:26:57.748Z,22.80
2022-08-25T11:37:11.112Z,21.49
2022-08-25T11:39:55.940Z,21.39
2022-08-25T11:42:28.665Z,21.30
2022-08-25T11:45:42.452Z,21.51
2022-08-25T11:48:21.756Z,21.68
2022-08-25T11:51:04.998Z,21.83
2022-08-25T11:53:35.811Z,21.93
2022-08-25T11:56:09.514Z,22.11
2022-08-25T12:02:09.068Z,22.11
2022-08-25T12:04:45.116Z,21.90
2022-08-25T12:11:10.972Z,21.52
2022-08-25T12:13:49.686Z,21.50
2022-08-25T12:16:36.235Z,21.45
2022-08-25T12:22:55.528Z,21.54
2022-08-25T12:29:46.239Z,21.33
2022-08-25T12:32:34.794Z,21.15
2022-08-25T12:36:00.317Z,20.93
2022-08-25T12:38:53.018Z,20.67
2022-08-25T12:50:50.371Z,20.40
2022-08-25T12:53:27.995Z,20.60
2022-08-25T12:56:21.020Z,20.80
2022-08-25T12:59:02.500Z,20.99
2022-08-25T13:02:17.662Z,21.05
2022-08-25T13:05:17.045Z,21.21
2022-08-25T13:08:26.868Z,21.35
2022-08-25T13:15:44.376Z,22.40
2022-08-25T13:18:34.030Z,22.80
2022-08-25T13:21:40.956Z,22.95
2022-08-25T13:24:50.619Z,23.04
2022-08-25T13:32:01.454Z,22.47
2022-08-25T13:37:38.661Z,22.45
2022-08-25T13:44:19.524Z,22.96
2022-08-25T13:46:47.557Z,23.12
2022-08-25T13:53:17.031Z,23.04
2022-08-25T13:56:07.747Z,22.83
2022-08-25T13:59:03.586Z,22.86
2022-08-25T14:01:54.270Z,22.92
2022-08-25T14:04:50.591Z,22.96
2022-08-25T14:07:19.626Z,22.88
2022-08-25T14:10:09.030Z,22.83
2022-08-25T14:12:47.803Z,22.78
2022-08-25T14:15:21.778Z,23.15
2022-08-25T14:18:00.775Z,23.36
2022-08-25T14:20:31.202Z,23.30
2022-08-25T14:23:01.795Z,23.23
2022-08-25T14:25:49.388Z,23.14
2022-08-25T14:32:37.323Z,23.20
2022-08-25T14:35:25.124Z,23.52
2022-08-25T14:39:02.789Z,23.83
2022-08-25T14:45:31.486Z,23.94
2022-08-25T14:48:28.493Z,23.66
2022-08-25T14:51:16.110Z,23.41
2022-08-25T14:54:19.155Z,23.28
2022-08-25T14:57:08.281Z,23.33
2022-08-25T14:59:35.754Z,23.79
2022-08-25T15:02:15.325Z,23.86
2022-08-25T15:05:08.936Z,23.75
2022-08-25T15:08:33.384Z,23.54
2022-08-25T15:11:10.985Z,23.39
2022-08-25T15:18:26.046Z,22.97
2022-08-25T15:20:53.454Z,22.85
2022-08-25T15:24:17.660Z,22.71
2022-08-25T15:29:55.755Z,22.38
2022-08-25T15:32:25.017Z,22.38
2022-08-25T15:35:23.425Z,22.42
2022-08-25T15:38:16.196Z,22.41
2022-08-25T15:53:42.083Z,22.52
2022-08-25T15:56:29.198Z,22.55
2022-08-25T16:02:46.482Z,22.65
2022-08-25T16:13:12.080Z,22.36
2022-08-25T16:15:54.073Z,22.33
2022-08-25T16:18:22.729Z,22.35
2022-08-25T16:20:50.366Z,22.31
2022-08-25T16:27:17.797Z,22.13
2022-08-25T16:29:44.743Z,22.12
2022-08-25T16:32:13.897Z,22.05
2022-08-25T16:38:31.160Z,21.87
2022-08-25T16:48:40.511Z,21.77
2022-08-25T16:51:13.919Z,21.80
2022-08-25T16:54:00.691Z,21.79
2022-08-25T16:56:29.728Z,21.79
2022-08-25T16:59:12.920Z,21.77
2022-08-25T17:02:00.062Z,21.68
2022-08-25T17:04:32.248Z,21.60
2022-08-25T17:06:59.916Z,21.55
2022-08-25T17:09:29.656Z,21.58
2022-08-25T17:11:57.327Z,21.53
2022-08-25T17:14:24.935Z,21.54
2022-08-25T17:16:54.780Z,21.53
2022-08-25T17:19:23.675Z,21.54
2022-08-25T17:21:50.933Z,21.49
2022-08-25T17:24:18.004Z,21.48
2022-08-25T17:26:47.329Z,21.47
2022-08-25T17:29:19.025Z,21.47
2022-08-25T17:31:51.269Z,21.45
2022-08-25T17:34:22.464Z,21.48
2022-08-25T17:36:50.361Z,21.42
2022-08-25T17:39:18.501Z,21.34
2022-08-25T17:41:45.830Z,21.27
2022-08-25T17:44:13.588Z,21.19
2022-08-25T17:46:47.217Z,21.19
2022-08-25T17:49:20.921Z,21.39
2022-08-25T17:51:47.712Z,21.54
2022-08-25T17:54:14.913Z,21.63
2022-08-25T17:56:41.971Z,21.67
2022-08-25T17:59:09.356Z,21.67
2022-08-25T18:01:40.522Z,21.55
2022-08-25T18:04:08.270Z,21.43
2022-08-25T18:06:44.676Z,21.38
2022-08-25T18:13:02.411Z,21.08
2022-08-25T18:15:30.561Z,21.03
2022-08-25T18:17:57.636Z,20.99
2022-08-25T18:20:24.810Z,20.93
2022-08-25T18:22:51.724Z,20.88
2022-08-25T18:25:18.504Z,20.78
2022-08-25T18:27:45.250Z,20.77
2022-08-25T18:30:12.368Z,20.75
2022-08-25T18:32:40.526Z,20.78
2022-08-25T18:35:27.790Z,20.75
2022-08-25T18:42:06.530Z,20.62
2022-08-25T18:44:54.383Z,20.56
2022-08-25T18:47:41.610Z,20.44
2022-08-25T18:50:32.737Z,20.34
2022-08-25T18:53:30.713Z,20.24
2022-08-25T18:56:53.963Z,20.18
2022-08-25T18:59:24.189Z,20.18
2022-08-25T19:01:53.085Z,20.15
2022-08-25T19:04:20.492Z,20.12
2022-08-25T19:07:14.750Z,20.05
2022-08-25T19:09:41.535Z,19.99
2022-08-25T19:12:11.722Z,19.92
2022-08-25T19:14:49.357Z,19.93
2022-08-25T19:17:37.322Z,19.92
2022-08-25T19:24:15.886Z,19.85
2022-08-25T19:26:43.155Z,19.88
2022-08-25T19:30:30.450Z,19.86
2022-08-25T19:37:25.251Z,19.82
2022-08-25T19:39:55.552Z,19.78
2022-08-25T19:54:29.966Z,19.61
2022-08-25T19:57:28.632Z,19.60
2022-08-25T20:03:58.506Z,19.54
2022-08-25T20:14:16.814Z,19.39
2022-08-25T20:25:48.251Z,19.30
2022-08-25T20:28:37.350Z,19.27
2022-08-25T20:35:55.122Z,19.20
2022-08-25T20:39:20.544Z,19.17
2022-08-25T20:41:51.101Z,19.10
2022-08-25T20:47:58.464Z,18.96
2022-08-25T20:55:54.950Z,18.92
2022-08-25T20:58:54.671Z,18.92
2022-08-25T21:01:43.736Z,18.87
2022-08-25T21:04:14.529Z,18.82
2022-08-25T21:10:23.462Z,18.82
2022-08-25T21:12:53.540Z,18.83
2022-08-25T21:15:20.562Z,18.81
2022-08-25T21:21:49.799Z,18.77
2022-08-25T21:24:18.364Z,18.76
2022-08-25T21:26:49.759Z,18.75
2022-08-25T21:29:36.952Z,18.72
2022-08-25T21:32:24.598Z,18.70
2022-08-25T21:35:11.839Z,18.63
2022-08-25T21:38:29.467Z,18.61
2022-08-25T21:40:58.818Z,18.57
2022-08-25T21:43:26.194Z,18.57
2022-08-25T21:50:05.101Z,18.53
2022-08-25T21:52:43.515Z,18.50
2022-08-25T21:55:46.243Z,18.47
2022-08-25T21:58:13.816Z,18.48
2022-08-25T22:00:41.154Z,18.52
2022-08-25T22:03:08.223Z,18.54
2022-08-25T22:05:37.360Z,18.53
2022-08-25T22:08:04.293Z,18.50
2022-08-25T22:10:31.056Z,18.49
2022-08-25T22:12:57.804Z,18.43
2022-08-25T22:15:24.784Z,18.40
2022-08-25T22:17:51.726Z,18.39
2022-08-25T22:20:25.298Z,18.37
2022-08-25T22:23:20.161Z,18.32
2022-08-25T22:25:50.392Z,18.29
2022-08-25T22:32:06.672Z,18.18
2022-08-25T22:34:34.716Z,18.15
2022-08-25T22:37:07.061Z,18.16
2022-08-25T22:39:46.926Z,18.19
2022-08-25T22:42:14.219Z,18.21
2022-08-25T22:45:01.941Z,18.20
2022-08-25T22:47:29.782Z,18.18
2022-08-25T22:53:48.718Z,18.18
2022-08-25T22:56:29.825Z,18.20
2022-08-25T22:58:59.398Z,18.22
2022-08-25T23:01:26.897Z,18.25
2022-08-25T23:07:44.384Z,18.23
2022-08-25T23:15:12.203Z,18.22
2022-08-25T23:17:39.082Z,18.22
2022-08-25T23:27:47.598Z,18.12
2022-08-25T23:30:17.114Z,18.09
2022-08-25T23:32:43.916Z,18.11
2022-08-25T23:35:12.266Z,18.11
2022-08-25T23:37:41.875Z,18.10
2022-08-25T23:40:11.221Z,18.11
2022-08-25T23:42:58.761Z,18.07
2022-08-25T23:45:46.397Z,18.07
2022-08-25T23:48:34.793Z,18.04
2022-08-25T23:51:28.234Z,18.03
2022-08-25T23:54:15.852Z,18.04
2022-08-25T23:57:03.642Z,18.02
2022-08-25T23:59:53.894Z,18.01
